sensor_id;sensor_type;location;lat;lon;timestamp;temperature;humidity
34646;DHT22;20857;47.808;12.482;2022-09-21T00:00:33;8.00;99.90
34646;DHT22;20857;47.808;12.482;2022-09-21T00:02:59;8.00;99.90
34646;DHT22;20857;47.808;12.482;2022-09-21T00:05:24;8.00;99.90
34646;DHT22;20857;47.808;12.482;2022-09-21T00:07:50;8.00;99.90
34646;DHT22;20857;47.808;12.482;2022-09-21T00:10:16;8.00;99.90
34646;DHT22;20857;47.808;12.482;2022-09-21T00:12:43;8.00;99.90
34646;DHT22;20857;47.808;12.482;2022-09-21T00:15:12;8.00;99.90
34646;DHT22;20857;47.808;12.482;2022-09-21T00:17:39;8.00;99.90
34646;DHT22;20857;47.808;12.482;2022-09-21T00:20:05;8.10;99.90
34646;DHT22;20857;47.808;12.482;2022-09-21T00:22:32;8.10;99.90
34646;DHT22;20857;47.808;12.482;2022-09-21T00:24:58;8.10;99.90
34646;DHT22;20857;47.808;12.482;2022-09-21T00:27:23;8.00;99.90
34646;DHT22;20857;47.808;12.482;2022-09-21T00:30:04;8.10;99.90
34646;DHT22;20857;47.808;12.482;2022-09-21T00:32:32;8.00;99.90
34646;DHT22;20857;47.808;12.482;2022-09-21T00:34:58;8.20;99.90
34646;DHT22;20857;47.808;12.482;2022-09-21T00:37:28;8.20;99.90
34646;DHT22;20857;47.808;12.482;2022-09-21T00:39:54;8.10;99.90
34646;DHT22;20857;47.808;12.482;2022-09-21T00:42:26;8.00;99.90
34646;DHT22;20857;47.808;12.482;2022-09-21T00:44:52;8.00;99.90
34646;DHT22;20857;47.808;12.482;2022-09-21T00:47:26;8.00;99.90
34646;DHT22;20857;47.808;12.482;2022-09-21T00:49:56;8.10;99.90
34646;DHT22;20857;47.808;12.482;2022-09-21T00:52:24;8.00;99.90
34646;DHT22;20857;47.808;12.482;2022-09-21T00:54:57;8.00;99.90
34646;DHT22;20857;47.808;12.482;2022-09-21T00:57:26;8.00;99.90
34646;DHT22;20857;47.808;12.482;2022-09-21T00:59:57;8.00;99.90
34646;DHT22;20857;47.808;12.482;2022-09-21T01:02:23;8.00;99.90
34646;DHT22;20857;47.808;12.482;2022-09-21T01:04:51;8.00;99.90
34646;DHT22;20857;47.808;12.482;2022-09-21T01:07:23;7.90;99.90
34646;DHT22;20857;47.808;12.482;2022-09-21T01:09:54;7.90;99.90
34646;DHT22;20857;47.808;12.482;2022-09-21T01:17:59;7.80;99.90
34646;DHT22;20857;47.808;12.482;2022-09-21T01:26:41;7.90;99.90
34646;DHT22;20857;47.808;12.482;2022-09-21T01:29:27;7.90;99.90
34646;DHT22;20857;47.808;12.482;2022-09-21T01:35:30;8.00;99.90
34646;DHT22;20857;47.808;12.482;2022-09-21T01:37:56;8.00;99.90
34646;DHT22;20857;47.808;12.482;2022-09-21T01:40:42;7.90;99.90
34646;DHT22;20857;47.808;12.482;2022-09-21T01:43:12;7.80;99.90
34646;DHT22;20857;47.808;12.482;2022-09-21T01:45:44;7.80;99.90
34646;DHT22;20857;47.808;12.482;2022-09-21T01:48:12;7.70;99.90
34646;DHT22;20857;47.808;12.482;2022-09-21T01:50:45;7.80;99.90
34646;DHT22;20857;47.808;12.482;2022-09-21T01:53:26;7.80;99.90
34646;DHT22;20857;47.808;12.482;2022-09-21T01:55:56;7.70;99.90
34646;DHT22;20857;47.808;12.482;2022-09-21T01:58:40;7.70;99.90
34646;DHT22;20857;47.808;12.482;2022-09-21T02:01:11;7.70;99.90
34646;DHT22;20857;47.808;12.482;2022-09-21T02:03:46;7.70;99.90
34646;DHT22;20857;47.808;12.482;2022-09-21T02:06:14;7.70;99.90
34646;DHT22;20857;47.808;12.482;2022-09-21T02:08:41;7.70;99.90
34646;DHT22;20857;47.808;12.482;2022-09-21T02:11:07;7.80;99.90
34646;DHT22;20857;47.808;12.482;2022-09-21T02:13:35;7.80;99.90
34646;DHT22;20857;47.808;12.482;2022-09-21T02:24:05;7.80;99.90
34646;DHT22;20857;47.808;12.482;2022-09-21T02:26:39;7.70;99.90
34646;DHT22;20857;47.808;12.482;2022-09-21T02:29:23;7.80;99.90
34646;DHT22;20857;47.808;12.482;2022-09-21T02:32:15;7.80;99.90
34646;DHT22;20857;47.808;12.482;2022-09-21T02:34:48;7.80;99.90
34646;DHT22;20857;47.808;12.482;2022-09-21T02:37:23;7.80;99.90
34646;DHT22;20857;47.808;12.482;2022-09-21T02:40:02;7.80;99.90
34646;DHT22;20857;47.808;12.482;2022-09-21T02:42:35;7.70;99.90
34646;DHT22;20857;47.808;12.482;2022-09-21T02:45:21;7.70;99.90
34646;DHT22;20857;47.808;12.482;2022-09-21T02:48:06;7.70;99.90
34646;DHT22;20857;47.808;12.482;2022-09-21T02:50:49;7.70;99.90
34646;DHT22;20857;47.808;12.482;2022-09-21T02:53:23;7.70;99.90
34646;DHT22;20857;47.808;12.482;2022-09-21T02:55:51;7.70;99.90
34646;DHT22;20857;47.808;12.482;2022-09-21T02:58:19;7.70;99.90
34646;DHT22;20857;47.808;12.482;2022-09-21T03:00:46;7.70;99.90
34646;DHT22;20857;47.808;12.482;2022-09-21T03:03:20;7.70;99.90
34646;DHT22;20857;47.808;12.482;2022-09-21T03:05:48;7.70;99.90
34646;DHT22;20857;47.808;12.482;2022-09-21T03:08:16;7.60;99.90
34646;DHT22;20857;47.808;12.482;2022-09-21T03:10:41;7.60;99.90
34646;DHT22;20857;47.808;12.482;2022-09-21T03:13:08;7.70;99.90
34646;DHT22;20857;47.808;12.482;2022-09-21T03:15:38;7.60;99.90
34646;DHT22;20857;47.808;12.482;2022-09-21T03:18:05;7.60;99.90
34646;DHT22;20857;47.808;12.482;2022-09-21T03:20:32;7.50;99.90
34646;DHT22;20857;47.808;12.482;2022-09-21T03:22:58;7.50;99.90
34646;DHT22;20857;47.808;12.482;2022-09-21T03:25:24;7.60;99.90
34646;DHT22;20857;47.808;12.482;2022-09-21T03:27:50;7.70;99.90
34646;DHT22;20857;47.808;12.482;2022-09-21T03:30:22;7.60;99.90
34646;DHT22;20857;47.808;12.482;2022-09-21T03:32:57;7.60;99.90
34646;DHT22;20857;47.808;12.482;2022-09-21T03:35:23;7.60;99.90
34646;DHT22;20857;47.808;12.482;2022-09-21T03:37:52;7.70;99.90
34646;DHT22;20857;47.808;12.482;2022-09-21T03:40:19;7.70;99.90
34646;DHT22;20857;47.808;12.482;2022-09-21T03:42:45;7.70;99.90
34646;DHT22;20857;47.808;12.482;2022-09-21T03:45:11;7.80;99.90
34646;DHT22;20857;47.808;12.482;2022-09-21T03:47:38;7.70;99.90
34646;DHT22;20857;47.808;12.482;2022-09-21T03:50:05;7.80;99.90
34646;DHT22;20857;47.808;12.482;2022-09-21T03:52:31;7.70;99.90
34646;DHT22;20857;47.808;12.482;2022-09-21T03:54:57;7.80;99.90
34646;DHT22;20857;47.808;12.482;2022-09-21T03:57:22;7.70;99.90
34646;DHT22;20857;47.808;12.482;2022-09-21T03:59:48;7.70;99.90
34646;DHT22;20857;47.808;12.482;2022-09-21T04:02:14;7.60;99.90
34646;DHT22;20857;47.808;12.482;2022-09-21T04:04:40;7.60;99.90
34646;DHT22;20857;47.808;12.482;2022-09-21T04:07:06;7.60;99.90
34646;DHT22;20857;47.808;12.482;2022-09-21T04:09:31;7.50;99.90
34646;DHT22;20857;47.808;12.482;2022-09-21T04:11:57;7.50;99.90
34646;DHT22;20857;47.808;12.482;2022-09-21T04:14:23;7.50;99.90
34646;DHT22;20857;47.808;12.482;2022-09-21T04:16:48;7.50;99.90
34646;DHT22;20857;47.808;12.482;2022-09-21T04:19:16;7.50;99.90
34646;DHT22;20857;47.808;12.482;2022-09-21T04:21:42;7.50;99.90
34646;DHT22;20857;47.808;12.482;2022-09-21T04:24:08;7.50;99.90
34646;DHT22;20857;47.808;12.482;2022-09-21T04:26:34;7.50;99.90
34646;DHT22;20857;47.808;12.482;2022-09-21T04:29:01;7.50;99.90
34646;DHT22;20857;47.808;12.482;2022-09-21T04:31:28;7.50;99.90
34646;DHT22;20857;47.808;12.482;2022-09-21T04:33:55;7.50;99.90
34646;DHT22;20857;47.808;12.482;2022-09-21T04:36:23;7.60;99.90
34646;DHT22;20857;47.808;12.482;2022-09-21T04:38:49;7.50;99.90
34646;DHT22;20857;47.808;12.482;2022-09-21T04:41:15;7.60;99.90
34646;DHT22;20857;47.808;12.482;2022-09-21T04:43:42;7.60;99.90
34646;DHT22;20857;47.808;12.482;2022-09-21T04:46:11;7.60;99.90
34646;DHT22;20857;47.808;12.482;2022-09-21T04:48:38;7.60;99.90
34646;DHT22;20857;47.808;12.482;2022-09-21T04:51:04;7.50;99.90
34646;DHT22;20857;47.808;12.482;2022-09-21T04:53:32;7.40;99.90
34646;DHT22;20857;47.808;12.482;2022-09-21T04:55:58;7.40;99.90
34646;DHT22;20857;47.808;12.482;2022-09-21T04:58:24;7.30;99.90
34646;DHT22;20857;47.808;12.482;2022-09-21T05:00:51;7.30;99.90
34646;DHT22;20857;47.808;12.482;2022-09-21T05:03:20;7.30;99.90
34646;DHT22;20857;47.808;12.482;2022-09-21T05:05:47;7.20;99.90
34646;DHT22;20857;47.808;12.482;2022-09-21T05:08:13;7.20;99.90
34646;DHT22;20857;47.808;12.482;2022-09-21T05:10:38;7.10;99.90
34646;DHT22;20857;47.808;12.482;2022-09-21T05:13:04;7.10;99.90
34646;DHT22;20857;47.808;12.482;2022-09-21T05:15:30;7.00;99.90
34646;DHT22;20857;47.808;12.482;2022-09-21T05:17:55;6.90;99.90
34646;DHT22;20857;47.808;12.482;2022-09-21T05:20:21;6.80;99.90
34646;DHT22;20857;47.808;12.482;2022-09-21T05:22:46;6.80;99.90
34646;DHT22;20857;47.808;12.482;2022-09-21T05:25:12;6.80;99.90
34646;DHT22;20857;47.808;12.482;2022-09-21T05:27:37;6.70;99.90
34646;DHT22;20857;47.808;12.482;2022-09-21T05:30:04;6.80;99.90
34646;DHT22;20857;47.808;12.482;2022-09-21T05:37:58;6.70;99.90
34646;DHT22;20857;47.808;12.482;2022-09-21T05:40:26;6.70;99.90
34646;DHT22;20857;47.808;12.482;2022-09-21T05:42:52;6.60;99.90
34646;DHT22;20857;47.808;12.482;2022-09-21T05:45:18;6.60;99.90
34646;DHT22;20857;47.808;12.482;2022-09-21T05:53:33;6.50;99.90
34646;DHT22;20857;47.808;12.482;2022-09-21T05:56:20;6.60;99.90
34646;DHT22;20857;47.808;12.482;2022-09-21T06:03:58;6.80;99.90
34646;DHT22;20857;47.808;12.482;2022-09-21T06:06:24;6.90;99.90
34646;DHT22;20857;47.808;12.482;2022-09-21T06:08:50;7.00;99.90
34646;DHT22;20857;47.808;12.482;2022-09-21T06:11:16;7.00;99.90
34646;DHT22;20857;47.808;12.482;2022-09-21T06:13:42;7.10;99.90
34646;DHT22;20857;47.808;12.482;2022-09-21T06:16:08;7.20;99.90
34646;DHT22;20857;47.808;12.482;2022-09-21T06:18:38;7.30;99.90
34646;DHT22;20857;47.808;12.482;2022-09-21T06:21:05;7.40;99.90
34646;DHT22;20857;47.808;12.482;2022-09-21T06:23:31;7.40;99.90
34646;DHT22;20857;47.808;12.482;2022-09-21T06:25:56;7.50;99.90
34646;DHT22;20857;47.808;12.482;2022-09-21T06:28:22;7.60;99.90
34646;DHT22;20857;47.808;12.482;2022-09-21T06:30:52;7.60;99.90
34646;DHT22;20857;47.808;12.482;2022-09-21T06:33:19;7.70;99.90
34646;DHT22;20857;47.808;12.482;2022-09-21T06:35:56;7.70;99.90
34646;DHT22;20857;47.808;12.482;2022-09-21T06:38:23;7.80;99.90
34646;DHT22;20857;47.808;12.482;2022-09-21T06:40:49;7.90;99.90
34646;DHT22;20857;47.808;12.482;2022-09-21T06:43:17;8.00;99.90
34646;DHT22;20857;47.808;12.482;2022-09-21T06:45:42;8.00;99.90
34646;DHT22;20857;47.808;12.482;2022-09-21T06:48:08;8.10;99.90
34646;DHT22;20857;47.808;12.482;2022-09-21T06:50:34;8.10;99.90
34646;DHT22;20857;47.808;12.482;2022-09-21T06:53:01;8.20;99.90
34646;DHT22;20857;47.808;12.482;2022-09-21T06:55:27;8.30;99.90
34646;DHT22;20857;47.808;12.482;2022-09-21T06:58:00;8.40;99.90
34646;DHT22;20857;47.808;12.482;2022-09-21T07:00:31;8.40;99.90
34646;DHT22;20857;47.808;12.482;2022-09-21T07:02:57;8.40;99.90
34646;DHT22;20857;47.808;12.482;2022-09-21T07:05:23;8.50;99.90
34646;DHT22;20857;47.808;12.482;2022-09-21T07:07:49;8.50;99.90
34646;DHT22;20857;47.808;12.482;2022-09-21T07:10:15;8.60;99.90
34646;DHT22;20857;47.808;12.482;2022-09-21T07:12:43;8.70;99.90
34646;DHT22;20857;47.808;12.482;2022-09-21T07:15:09;8.70;99.90
34646;DHT22;20857;47.808;12.482;2022-09-21T07:17:37;8.70;99.90
34646;DHT22;20857;47.808;12.482;2022-09-21T07:20:03;8.80;99.90
34646;DHT22;20857;47.808;12.482;2022-09-21T07:22:31;8.80;99.90
34646;DHT22;20857;47.808;12.482;2022-09-21T07:24:57;8.80;99.90
34646;DHT22;20857;47.808;12.482;2022-09-21T07:27:37;8.90;99.90
34646;DHT22;20857;47.808;12.482;2022-09-21T07:30:07;9.00;99.90
34646;DHT22;20857;47.808;12.482;2022-09-21T07:32:34;9.10;99.90
34646;DHT22;20857;47.808;12.482;2022-09-21T07:35:00;9.10;99.90
34646;DHT22;20857;47.808;12.482;2022-09-21T07:37:26;9.10;99.90
34646;DHT22;20857;47.808;12.482;2022-09-21T07:39:52;9.10;99.90
34646;DHT22;20857;47.808;12.482;2022-09-21T07:42:49;9.20;99.90
34646;DHT22;20857;47.808;12.482;2022-09-21T07:45:32;9.30;99.90
34646;DHT22;20857;47.808;12.482;2022-09-21T07:48:05;9.40;99.90
34646;DHT22;20857;47.808;12.482;2022-09-21T07:50:32;9.60;99.90
34646;DHT22;20857;47.808;12.482;2022-09-21T07:52:59;9.70;99.90
34646;DHT22;20857;47.808;12.482;2022-09-21T07:55:25;9.70;99.90
34646;DHT22;20857;47.808;12.482;2022-09-21T07:58:05;9.80;99.90
34646;DHT22;20857;47.808;12.482;2022-09-21T08:00:49;9.90;99.90
34646;DHT22;20857;47.808;12.482;2022-09-21T08:03:15;10.00;99.90
34646;DHT22;20857;47.808;12.482;2022-09-21T08:05:40;10.10;99.90
34646;DHT22;20857;47.808;12.482;2022-09-21T08:08:06;10.10;99.90
34646;DHT22;20857;47.808;12.482;2022-09-21T08:10:32;9.90;99.90
34646;DHT22;20857;47.808;12.482;2022-09-21T08:13:19;9.90;99.90
34646;DHT22;20857;47.808;12.482;2022-09-21T08:15:57;9.80;99.90
34646;DHT22;20857;47.808;12.482;2022-09-21T08:18:22;9.80;99.90
34646;DHT22;20857;47.808;12.482;2022-09-21T08:20:58;9.80;99.90
34646;DHT22;20857;47.808;12.482;2022-09-21T08:23:25;9.80;99.90
34646;DHT22;20857;47.808;12.482;2022-09-21T08:25:51;9.90;99.90
34646;DHT22;20857;47.808;12.482;2022-09-21T08:28:22;10.20;99.90
34646;DHT22;20857;47.808;12.482;2022-09-21T08:30:47;10.60;99.90
34646;DHT22;20857;47.808;12.482;2022-09-21T08:33:13;10.60;99.90
34646;DHT22;20857;47.808;12.482;2022-09-21T08:35:39;10.80;99.90
34646;DHT22;20857;47.808;12.482;2022-09-21T08:38:04;10.80;99.90
34646;DHT22;20857;47.808;12.482;2022-09-21T08:40:31;10.70;99.90
34646;DHT22;20857;47.808;12.482;2022-09-21T08:43:21;10.70;99.90
34646;DHT22;20857;47.808;12.482;2022-09-21T08:45:51;10.70;99.90
34646;DHT22;20857;47.808;12.482;2022-09-21T08:48:21;10.50;99.90
34646;DHT22;20857;47.808;12.482;2022-09-21T08:50:52;10.40;99.90
34646;DHT22;20857;47.808;12.482;2022-09-21T08:53:24;10.30;99.90
34646;DHT22;20857;47.808;12.482;2022-09-21T08:55:50;10.10;99.90
34646;DHT22;20857;47.808;12.482;2022-09-21T08:58:25;10.10;99.90
34646;DHT22;20857;47.808;12.482;2022-09-21T09:15:19;10.10;99.90
34646;DHT22;20857;47.808;12.482;2022-09-21T09:17:59;10.20;99.90
34646;DHT22;20857;47.808;12.482;2022-09-21T09:20:37;10.40;99.90
34646;DHT22;20857;47.808;12.482;2022-09-21T09:26:08;10.50;99.90
34646;DHT22;20857;47.808;12.482;2022-09-21T09:28:50;10.40;99.90
34646;DHT22;20857;47.808;12.482;2022-09-21T09:31:27;10.50;99.90
34646;DHT22;20857;47.808;12.482;2022-09-21T09:34:14;10.50;99.90
34646;DHT22;20857;47.808;12.482;2022-09-21T09:36:45;10.50;99.90
34646;DHT22;20857;47.808;12.482;2022-09-21T09:39:16;10.60;99.90
34646;DHT22;20857;47.808;12.482;2022-09-21T09:50:33;11.40;99.90
34646;DHT22;20857;47.808;12.482;2022-09-21T10:00:54;12.30;99.90
34646;DHT22;20857;47.808;12.482;2022-09-21T10:03:22;12.30;99.90
34646;DHT22;20857;47.808;12.482;2022-09-21T10:05:49;12.20;99.90
34646;DHT22;20857;47.808;12.482;2022-09-21T10:11:04;11.90;99.90
34646;DHT22;20857;47.808;12.482;2022-09-21T10:13:35;11.80;99.90
34646;DHT22;20857;47.808;12.482;2022-09-21T10:18:44;11.80;99.90
34646;DHT22;20857;47.808;12.482;2022-09-21T10:21:26;12.00;99.90
34646;DHT22;20857;47.808;12.482;2022-09-21T10:24:18;12.10;99.90
34646;DHT22;20857;47.808;12.482;2022-09-21T10:26:48;12.40;99.90
34646;DHT22;20857;47.808;12.482;2022-09-21T10:32:04;12.60;99.90
34646;DHT22;20857;47.808;12.482;2022-09-21T10:34:33;12.70;99.90
34646;DHT22;20857;47.808;12.482;2022-09-21T10:37:01;12.70;99.90
34646;DHT22;20857;47.808;12.482;2022-09-21T10:39:32;12.80;99.90
34646;DHT22;20857;47.808;12.482;2022-09-21T10:42:11;13.00;99.90
34646;DHT22;20857;47.808;12.482;2022-09-21T10:44:40;13.30;99.90
34646;DHT22;20857;47.808;12.482;2022-09-21T10:49:43;12.90;99.90
34646;DHT22;20857;47.808;12.482;2022-09-21T10:52:09;12.80;99.90
34646;DHT22;20857;47.808;12.482;2022-09-21T10:54:35;13.00;99.90
34646;DHT22;20857;47.808;12.482;2022-09-21T10:57:44;13.10;99.90
34646;DHT22;20857;47.808;12.482;2022-09-21T11:02:58;13.30;99.90
34646;DHT22;20857;47.808;12.482;2022-09-21T11:05:30;13.40;99.90
34646;DHT22;20857;47.808;12.482;2022-09-21T11:08:14;13.40;99.90
34646;DHT22;20857;47.808;12.482;2022-09-21T11:10:52;13.50;99.90
34646;DHT22;20857;47.808;12.482;2022-09-21T11:13:32;13.60;99.90
34646;DHT22;20857;47.808;12.482;2022-09-21T11:16:18;14.00;99.90
34646;DHT22;20857;47.808;12.482;2022-09-21T11:19:39;14.00;99.90
34646;DHT22;20857;47.808;12.482;2022-09-21T11:22:34;14.10;99.90
34646;DHT22;20857;47.808;12.482;2022-09-21T11:25:48;13.80;99.90
34646;DHT22;20857;47.808;12.482;2022-09-21T11:31:43;13.60;99.90
34646;DHT22;20857;47.808;12.482;2022-09-21T11:40:37;13.70;99.90
34646;DHT22;20857;47.808;12.482;2022-09-21T11:52:05;14.40;99.90
34646;DHT22;20857;47.808;12.482;2022-09-21T11:54:52;14.10;99.90
34646;DHT22;20857;47.808;12.482;2022-09-21T11:57:42;13.90;99.90
34646;DHT22;20857;47.808;12.482;2022-09-21T12:00:20;13.90;99.90
34646;DHT22;20857;47.808;12.482;2022-09-21T12:11:01;13.20;99.90
34646;DHT22;20857;47.808;12.482;2022-09-21T12:13:53;13.40;99.90
34646;DHT22;20857;47.808;12.482;2022-09-21T12:16:31;13.60;99.90
34646;DHT22;20857;47.808;12.482;2022-09-21T12:19:18;13.70;99.90
34646;DHT22;20857;47.808;12.482;2022-09-21T12:22:00;13.60;99.90
34646;DHT22;20857;47.808;12.482;2022-09-21T12:24:37;13.70;99.90
34646;DHT22;20857;47.808;12.482;2022-09-21T12:27:16;13.80;99.90
34646;DHT22;20857;47.808;12.482;2022-09-21T12:30:03;13.70;99.90
34646;DHT22;20857;47.808;12.482;2022-09-21T12:36:04;13.70;99.90
34646;DHT22;20857;47.808;12.482;2022-09-21T12:38:29;13.80;99.90
34646;DHT22;20857;47.808;12.482;2022-09-21T12:41:13;13.90;99.90
34646;DHT22;20857;47.808;12.482;2022-09-21T12:43:45;13.90;99.90
34646;DHT22;20857;47.808;12.482;2022-09-21T12:46:22;13.90;99.90
34646;DHT22;20857;47.808;12.482;2022-09-21T12:48:49;13.80;99.90
34646;DHT22;20857;47.808;12.482;2022-09-21T12:51:23;13.70;99.90
34646;DHT22;20857;47.808;12.482;2022-09-21T12:53:52;13.70;99.90
34646;DHT22;20857;47.808;12.482;2022-09-21T12:59:30;13.80;99.90
34646;DHT22;20857;47.808;12.482;2022-09-21T13:02:23;13.80;99.90
34646;DHT22;20857;47.808;12.482;2022-09-21T13:13:29;14.10;99.90
34646;DHT22;20857;47.808;12.482;2022-09-21T13:15:53;14.20;99.90
34646;DHT22;20857;47.808;12.482;2022-09-21T13:20:51;14.40;99.90
34646;DHT22;20857;47.808;12.482;2022-09-21T13:23:24;14.40;99.90
34646;DHT22;20857;47.808;12.482;2022-09-21T13:26:11;14.50;99.90
34646;DHT22;20857;47.808;12.482;2022-09-21T13:28:59;14.60;99.90
34646;DHT22;20857;47.808;12.482;2022-09-21T13:34:15;14.50;99.90
34646;DHT22;20857;47.808;12.482;2022-09-21T13:36:43;14.40;99.90
34646;DHT22;20857;47.808;12.482;2022-09-21T13:39:17;14.20;99.90
34646;DHT22;20857;47.808;12.482;2022-09-21T13:41:44;14.10;99.90
34646;DHT22;20857;47.808;12.482;2022-09-21T13:44:41;14.10;99.90
34646;DHT22;20857;47.808;12.482;2022-09-21T13:47:08;13.90;99.90
34646;DHT22;20857;47.808;12.482;2022-09-21T13:54:49;13.90;99.90
34646;DHT22;20857;47.808;12.482;2022-09-21T13:57:36;13.70;99.90
34646;DHT22;20857;47.808;12.482;2022-09-21T14:00:27;13.70;99.90
34646;DHT22;20857;47.808;12.482;2022-09-21T14:02:56;13.70;99.90
34646;DHT22;20857;47.808;12.482;2022-09-21T14:08:04;13.80;99.90
34646;DHT22;20857;47.808;12.482;2022-09-21T14:10:33;13.70;99.90
34646;DHT22;20857;47.808;12.482;2022-09-21T14:13:02;13.60;99.90
34646;DHT22;20857;47.808;12.482;2022-09-21T14:15:37;13.60;99.90
34646;DHT22;20857;47.808;12.482;2022-09-21T14:18:34;13.50;99.90
34646;DHT22;20857;47.808;12.482;2022-09-21T14:23:34;13.30;99.90
34646;DHT22;20857;47.808;12.482;2022-09-21T14:26:34;13.40;99.90
34646;DHT22;20857;47.808;12.482;2022-09-21T14:31:38;13.30;99.90
34646;DHT22;20857;47.808;12.482;2022-09-21T14:34:09;13.40;99.90
34646;DHT22;20857;47.808;12.482;2022-09-21T14:36:40;13.40;99.90
34646;DHT22;20857;47.808;12.482;2022-09-21T14:39:15;13.50;99.90
34646;DHT22;20857;47.808;12.482;2022-09-21T14:41:43;13.40;99.90
34646;DHT22;20857;47.808;12.482;2022-09-21T14:44:19;13.60;99.90
34646;DHT22;20857;47.808;12.482;2022-09-21T14:52:40;13.70;99.90
34646;DHT22;20857;47.808;12.482;2022-09-21T15:00:40;13.90;99.90
34646;DHT22;20857;47.808;12.482;2022-09-21T15:03:24;13.90;99.90
34646;DHT22;20857;47.808;12.482;2022-09-21T15:06:29;13.90;99.90
34646;DHT22;20857;47.808;12.482;2022-09-21T15:09:29;13.60;99.90
34646;DHT22;20857;47.808;12.482;2022-09-21T15:12:34;13.30;99.90
34646;DHT22;20857;47.808;12.482;2022-09-21T15:15:28;13.00;99.90
34646;DHT22;20857;47.808;12.482;2022-09-21T15:17:58;12.70;99.90
34646;DHT22;20857;47.808;12.482;2022-09-21T15:20:25;12.50;99.90
34646;DHT22;20857;47.808;12.482;2022-09-21T15:22:58;12.40;99.90
34646;DHT22;20857;47.808;12.482;2022-09-21T15:25:27;12.30;99.90
34646;DHT22;20857;47.808;12.482;2022-09-21T15:27:55;12.40;99.90
34646;DHT22;20857;47.808;12.482;2022-09-21T15:30:24;12.60;99.90
34646;DHT22;20857;47.808;12.482;2022-09-21T15:32:59;12.80;99.90
34646;DHT22;20857;47.808;12.482;2022-09-21T15:35:30;12.90;99.90
34646;DHT22;20857;47.808;12.482;2022-09-21T15:37:58;13.00;99.90
34646;DHT22;20857;47.808;12.482;2022-09-21T15:40:33;13.00;99.90
34646;DHT22;20857;47.808;12.482;2022-09-21T15:43:20;13.00;99.90
34646;DHT22;20857;47.808;12.482;2022-09-21T15:48:22;13.20;99.90
34646;DHT22;20857;47.808;12.482;2022-09-21T15:50:55;13.70;99.90
34646;DHT22;20857;47.808;12.482;2022-09-21T15:53:48;14.40;99.90
34646;DHT22;20857;47.808;12.482;2022-09-21T15:59:15;14.90;99.90
34646;DHT22;20857;47.808;12.482;2022-09-21T16:01:44;14.80;99.90
34646;DHT22;20857;47.808;12.482;2022-09-21T16:04:17;14.50;99.90
34646;DHT22;20857;47.808;12.482;2022-09-21T16:06:47;14.20;99.90
34646;DHT22;20857;47.808;12.482;2022-09-21T16:11:56;13.80;99.90
34646;DHT22;20857;47.808;12.482;2022-09-21T16:14:24;13.70;99.90
34646;DHT22;20857;47.808;12.482;2022-09-21T16:22:38;13.00;99.90
34646;DHT22;20857;47.808;12.482;2022-09-21T16:27:57;12.50;99.90
34646;DHT22;20857;47.808;12.482;2022-09-21T16:35:57;11.70;99.90
34646;DHT22;20857;47.808;12.482;2022-09-21T16:38:23;11.60;99.90
34646;DHT22;20857;47.808;12.482;2022-09-21T16:40:48;11.50;99.90
34646;DHT22;20857;47.808;12.482;2022-09-21T16:43:18;11.20;99.90
34646;DHT22;20857;47.808;12.482;2022-09-21T16:45:48;11.10;99.90
34646;DHT22;20857;47.808;12.482;2022-09-21T16:48:14;10.90;99.90
34646;DHT22;20857;47.808;12.482;2022-09-21T16:50:39;10.80;99.90
34646;DHT22;20857;47.808;12.482;2022-09-21T16:53:07;10.70;99.90
34646;DHT22;20857;47.808;12.482;2022-09-21T16:55:33;10.50;99.90
34646;DHT22;20857;47.808;12.482;2022-09-21T16:57:59;10.40;99.90
34646;DHT22;20857;47.808;12.482;2022-09-21T17:00:27;10.40;99.90
34646;DHT22;20857;47.808;12.482;2022-09-21T17:02:54;10.30;99.90
34646;DHT22;20857;47.808;12.482;2022-09-21T17:05:20;10.20;99.90
34646;DHT22;20857;47.808;12.482;2022-09-21T17:07:55;10.00;99.90
34646;DHT22;20857;47.808;12.482;2022-09-21T17:10:24;9.80;99.90
34646;DHT22;20857;47.808;12.482;2022-09-21T17:12:54;9.70;99.90
34646;DHT22;20857;47.808;12.482;2022-09-21T17:15:20;9.60;99.90
34646;DHT22;20857;47.808;12.482;2022-09-21T17:17:48;9.40;99.90
34646;DHT22;20857;47.808;12.482;2022-09-21T17:20:25;9.30;99.90
34646;DHT22;20857;47.808;12.482;2022-09-21T17:22:53;9.40;99.90
34646;DHT22;20857;47.808;12.482;2022-09-21T17:25:19;9.30;99.90
34646;DHT22;20857;47.808;12.482;2022-09-21T17:27:44;9.10;99.90
34646;DHT22;20857;47.808;12.482;2022-09-21T17:30:12;9.10;99.90
34646;DHT22;20857;47.808;12.482;2022-09-21T17:32:41;9.00;99.90
34646;DHT22;20857;47.808;12.482;2022-09-21T17:35:26;8.90;99.90
34646;DHT22;20857;47.808;12.482;2022-09-21T17:40:24;8.70;99.90
34646;DHT22;20857;47.808;12.482;2022-09-21T17:42:50;8.60;99.90
34646;DHT22;20857;47.808;12.482;2022-09-21T17:48:25;8.40;99.90
34646;DHT22;20857;47.808;12.482;2022-09-21T17:50:51;8.40;99.90
34646;DHT22;20857;47.808;12.482;2022-09-21T17:53:17;8.30;99.90
34646;DHT22;20857;47.808;12.482;2022-09-21T17:59:00;8.10;99.90
34646;DHT22;20857;47.808;12.482;2022-09-21T18:01:33;8.10;99.90
34646;DHT22;20857;47.808;12.482;2022-09-21T18:04:01;8.10;99.90
34646;DHT22;20857;47.808;12.482;2022-09-21T18:06:27;8.00;99.90
34646;DHT22;20857;47.808;12.482;2022-09-21T18:08:53;7.90;99.90
34646;DHT22;20857;47.808;12.482;2022-09-21T18:11:46;7.90;99.90
34646;DHT22;20857;47.808;12.482;2022-09-21T18:14:40;8.00;99.90
34646;DHT22;20857;47.808;12.482;2022-09-21T18:23:13;7.90;99.90
34646;DHT22;20857;47.808;12.482;2022-09-21T18:25:43;7.70;99.90
34646;DHT22;20857;47.808;12.482;2022-09-21T18:28:33;7.60;99.90
34646;DHT22;20857;47.808;12.482;2022-09-21T18:37:31;7.30;99.90
34646;DHT22;20857;47.808;12.482;2022-09-21T18:40:20;7.30;99.90
34646;DHT22;20857;47.808;12.482;2022-09-21T18:45:46;7.30;99.90
34646;DHT22;20857;47.808;12.482;2022-09-21T18:48:44;7.20;99.90
34646;DHT22;20857;47.808;12.482;2022-09-21T18:51:29;7.00;99.90
34646;DHT22;20857;47.808;12.482;2022-09-21T18:53:56;6.90;99.90
34646;DHT22;20857;47.808;12.482;2022-09-21T18:56:27;6.80;99.90
34646;DHT22;20857;47.808;12.482;2022-09-21T18:58:56;6.80;99.90
34646;DHT22;20857;47.808;12.482;2022-09-21T19:01:22;6.80;99.90
34646;DHT22;20857;47.808;12.482;2022-09-21T19:03:48;6.80;99.90
34646;DHT22;20857;47.808;12.482;2022-09-21T19:06:42;6.80;99.90
34646;DHT22;20857;47.808;12.482;2022-09-21T19:12:13;6.90;99.90
34646;DHT22;20857;47.808;12.482;2022-09-21T19:17:22;6.90;99.90
34646;DHT22;20857;47.808;12.482;2022-09-21T19:23:19;6.80;99.90
34646;DHT22;20857;47.808;12.482;2022-09-21T19:31:22;6.50;99.90
34646;DHT22;20857;47.808;12.482;2022-09-21T19:33:48;6.50;99.90